Nearby METAR (Airport) Reports

 

KPRN - Greenville, Alabama, USA
Distance from station: WNW 17mi, 28km
Updated: Fri, 15-Jan-2021 6:58am CST
Clear
Clear
 Wind from WNW
Wind: WNW 3 mph , 6 km/h
Temperature: 48°F , 9°C
Dew Point: 34°F , 1°C
Humidity: 58%
Barometer: 29.81 inHg , 1009.5 hPa
Clouds: Clear
Visibility: 10 miles , 16 km
2021/01/15 12:58 KPRN 151258Z AUTO 30003KT 10SM CLR 09/01 A2981 RMK AO2 SLP044 T00890011
KTOI - Troy, Alabama, USA
Distance from station: ENE 21mi, 34km
Updated: Fri, 15-Jan-2021 6:53am CST
Clear
Clear
 Wind from calm
Wind: Calm
Temperature: 45°F , 7°C
Dew Point: 39°F , 4°C
Humidity: 81%
Barometer: 29.82 inHg , 1009.8 hPa
Clouds: Clear
Visibility: 10 miles , 16 km
2021/01/15 12:53 KTOI 151253Z AUTO 00000KT 10SM CLR 07/04 A2982 RMK AO2 SLP096 T00720044
K79J - Andalusia/Opp Ar, Alabama, USA
Distance from station: S 29mi, 47km
Updated: Fri, 15-Jan-2021 6:56am CST
Clear
Clear
 Wind from calm
Wind: Calm
Temperature: 48°F , 9°C
Dew Point: 39°F , 4°C
Humidity: 71%
Barometer: 29.83 inHg , 1010.2 hPa
Clouds: Clear
Visibility: 10 miles , 16 km
2021/01/15 12:56 K79J 151256Z AUTO 00000KT 10SM CLR 09/04 A2983 RMK AO2 SLP100 T00890039
 
KMGM - Montgomery, Alabama, USA
Distance from station: N 39mi, 63km
Updated: Fri, 15-Jan-2021 6:53am CST
Clear
Clear
 Wind from W
Wind: W 6 mph , 9 km/h
Temperature: 46°F , 8°C
Wind Chill: 43°F , 6°C
Dew Point: 39°F , 4°C
Humidity: 76%
Barometer: 29.82 inHg , 1009.8 hPa
Clouds: Clear
Visibility: 10 miles , 16 km
2021/01/15 12:53 KMGM 151253Z 28005KT 10SM CLR 08/04 A2982 RMK AO2 SLP095 T00830039
KMXF - Maxwell Afb/Mgm, Alabama, USA
Distance from station: N 44mi, 70km
Updated: Fri, 15-Jan-2021 6:56am CST
Overcast
Overcast
 Wind from WNW
Wind: WNW 3 mph , 6 km/h
Temperature: 46°F , 8°C
Dew Point: 37°F , 3°C
Humidity: 71%
Barometer: 29.81 inHg , 1009.5 hPa
Clouds: Overcast
Visibility: 10 miles , 16 km
Cloud details: Overcast 15000 ft
2021/01/15 12:56 KMXF 151256Z AUTO 30003KT 10SM OVC150 08/03 A2981 RMK AO2 SLP098 T00830031 $
KLOR - Lowe Ahp/Ft. Ruc, Alabama, USA
Distance from station: SE 44mi, 71km
Updated: Fri, 15-Jan-2021 6:58am CST
Few Clouds
Few Clouds
 Wind from calm
Wind: Calm
Temperature: 48°F , 9°C
Dew Point: 45°F , 7°C
Humidity: 87%
Barometer: 29.82 inHg , 1009.8 hPa
Clouds: Few Clouds
Visibility: 10 miles , 16 km
Cloud details: Few Clouds 14000 ft
2021/01/15 12:58 KLOR 151258Z AUTO 00000KT 10SM FEW140 09/07 A2982 RMK AO2 SLP082 T00930074
 
KGZH - Evergreen, Alabama, USA
Distance from station: WSW 46mi, 75km
Updated: Fri, 15-Jan-2021 6:53am CST
Clear
Clear
 Wind from calm
Wind: Calm
Temperature: 41°F , 5°C
Dew Point: 36°F , 2°C
Humidity: 81%
Barometer: 29.84 inHg , 1010.5 hPa
Clouds: Clear
Visibility: 10 miles , 16 km
2021/01/15 12:53 KGZH 151253Z AUTO 00000KT 10SM CLR 05/02 A2984 RMK AO2 SLP105 T00500022
K0J4 - Florala Muni, Alabama, USA
Distance from station: S 47mi, 76km
Updated: Fri, 15-Jan-2021 5:58am CST
NOT Current
Clear
Clear
 Wind from varies
Wind: varies 3 mph , 6 km/h
Temperature: 52°F , 11°C
Dew Point: 43°F , 6°C
Humidity: 72%
Barometer: 29.84 inHg , 1010.5 hPa
Clouds: Clear
Visibility: 10 miles , 16 km
2021/01/15 11:58 K0J4 151158Z AUTO VRB03KT 10SM CLR 11/06 A2984 RMK AO2 SLP104 60000 T01060061 10144 20106 53013
KOZR - Ozark/Cairns Aaf, Alabama, USA
Distance from station: SE 49mi, 78km
Updated: Fri, 15-Jan-2021 6:56am CST
Partly cloudy
Partly cloudy
 Wind from WNW
Wind: WNW 9 mph , 15 km/h
Temperature: 50°F , 10°C
Wind Chill: 46°F , 8°C
Dew Point: 46°F , 8°C
Humidity: 88%
Barometer: 29.82 inHg , 1009.8 hPa
Clouds: Partly cloudy
Visibility: 10 miles , 16 km
Cloud details: Partly cloudy 13000 ft
2021/01/15 12:56 KOZR 151256Z AUTO 29008KT 10SM SCT130 10/08 A2982 RMK AO2 SLP101 T00960077
 
KHEY - Ft Rucker/Hanche, Alabama, USA
Distance from station: ESE 49mi, 79km
Updated: Fri, 15-Jan-2021 6:58am CST
Partly cloudy
Partly cloudy
 Wind from NW
Wind: NW 6 mph , 9 km/h
Temperature: 50°F , 10°C
Wind Chill: 48°F , 9°C
Dew Point: 46°F , 8°C
Humidity: 88%
Barometer: 29.81 inHg , 1009.5 hPa
Clouds: Partly cloudy
Visibility: 9 miles , 14 km
Cloud details: Partly cloudy 14000 ft
2021/01/15 12:58 KHEY 151258Z AUTO 31005KT 9SM SCT140 10/08 A2981 RMK AO2 SLP097 T00980083
KDHN - Dothan, Alabama, USA
Distance from station: ESE 61mi, 97km
Updated: Fri, 15-Jan-2021 6:53am CST
Few Clouds
Few Clouds
 Wind from WNW
Wind: WNW 12 mph , 19 km/h
Temperature: 52°F , 11°C
Dew Point: 48°F , 9°C
Humidity: 88%
Barometer: 29.84 inHg , 1010.5 hPa
Clouds: Few Clouds
Visibility: 10 miles , 16 km
Cloud details: Few Clouds 11000 ft
2021/01/15 12:53 KDHN 151253Z 29010KT 10SM FEW110 11/09 A2984 RMK AO2 RAE03 SLP103 P0000 T01060089
KCEW - Crestview, Florida, USA
Distance from station: S 66mi, 107km
Updated: Fri, 15-Jan-2021 6:53am CST
Clear
Clear
 Wind from calm
Wind: Calm
Temperature: 46°F , 8°C
Dew Point: 41°F , 5°C
Humidity: 82%
Barometer: 29.86 inHg , 1011.2 hPa
Clouds: Clear
Visibility: 10 miles , 16 km
2021/01/15 12:53 KCEW 151253Z AUTO 00000KT 10SM CLR 08/05 A2986 RMK AO2 SLP110 T00830050
 
KEUF - Eufaula, Alabama, USA
Distance from station: ENE 73mi, 118km
Updated: Fri, 15-Jan-2021 7:21am CST
Partly cloudy
Partly cloudy
 Wind from WNW
Wind: WNW 6 mph , 9 km/h
Temperature: 52°F , 11°C
Dew Point: 45°F , 7°C
Humidity: 77%
Barometer: 29.82 inHg , 1009.8 hPa
Clouds: Partly cloudy
Visibility: 10 miles , 16 km
Cloud details: Partly cloudy 2100 ft
2021/01/15 13:21 KEUF 151321Z AUTO 30005KT 10SM SCT021 11/07 A2982 RMK AO2 I1000 T01060072
KJKA - Gulf Shores, Alabama, USA
Distance from station: SSW 132mi, 212km
Updated: Fri, 15-Jan-2021 7:35am CST
Clear
Clear
 Wind from WNW
Wind: WNW 3 mph , 6 km/h
Temperature: 45°F , 7°C
Dew Point: 39°F , 4°C
Humidity: 81%
Barometer: 29.89 inHg , 1012.2 hPa
Clouds: Clear
Visibility: 10 miles , 16 km
2021/01/15 13:35 KJKA 151335Z AUTO 29003KT 10SM CLR 07/04 A2989 RMK AO2 T00660039
KLSF - Ft Benning/Colum, Georgia, USA
Distance from station: SNE 89mi, 143km
Updated: Fri, 15-Jan-2021 6:56am CST
Overcast
Overcast
 Wind from W
Wind: W 5 mph , 7 km/h
Temperature: 48°F , 9°C
Wind Chill: 46°F , 8°C
Dew Point: 46°F , 8°C
Humidity: 94%
Barometer: 29.78 inHg , 1008.5 hPa
Clouds: Overcast
Visibility: 10 miles , 16 km
Cloud details: Overcast 14000 ft
2021/01/15 12:56 KLSF 151256Z AUTO 27004KT 10SM OVC140 09/08 A2978 RMK AO2 SLP090 T00940075
 
KMOB - Mobile/Bates, Alabama, USA
Distance from station: SW 125mi, 202km
Updated: Fri, 15-Jan-2021 6:56am CST
Few Clouds
Few Clouds
 Wind from WSW
Wind: WSW 5 mph , 7 km/h
Temperature: 37°F , 3°C
Wind Chill: 33°F , 1°C
Dew Point: 36°F , 2°C
Humidity: 93%
Barometer: 29.89 inHg , 1012.2 hPa
Clouds: Few Clouds
Visibility: 10 miles , 16 km
Cloud details: Few Clouds 2000 ft
2021/01/15 12:56 KMOB 151256Z 25004KT 10SM FEW020 03/02 A2989 RMK AO2 SLP120 T00330017
KNMM - Meridian Nas, Mississippi, USA
Distance from station: WNW 151mi, 243km
Updated: Fri, 15-Jan-2021 6:56am CST
Clear
Clear
 Wind from W
Wind: W 6 mph , 9 km/h
Temperature: 39°F , 4°C
Wind Chill: 35°F , 2°C
Dew Point: 32°F , 0°C
Humidity: 75%
Barometer: 29.86 inHg , 1011.2 hPa
Clouds: Clear
Visibility: 10 miles , 16 km
2021/01/15 12:56 KNMM 151256Z 26005KT 10SM CLR 04/00 A2986 RMK AO2 SLP122 T00390000
KQHY - Hurlbert (Ft Walton Bch), Florida, USA
Distance from station: S 94mi, 151km
Updated: Fri, 15-Jan-2021 6:56am CST
Mostly cloudy
Mostly cloudy
 Wind from calm
Wind: Calm
Temperature: 52°F , 11°C
Dew Point: 46°F , 8°C
Humidity: 82%
Barometer: 29.85 inHg , 1010.8 hPa
Clouds: Mostly cloudy
Visibility: 10 miles , 16 km
Cloud details: Mostly cloudy 13000 ft
2021/01/15 12:56 KQHY 151256Z AUTO 00000KT 10SM BKN130 11/08 A2985 RMK AO2 SLPNO T01100075
 
KTCL - Tuscaloosa, Alabama, USA
Distance from station: NNW 129mi, 207km
Updated: Fri, 15-Jan-2021 6:53am CST
Clear
Clear
 Wind from calm
Wind: Calm
Temperature: 37°F , 3°C
Dew Point: 36°F , 2°C
Humidity: 93%
Barometer: 29.83 inHg , 1010.2 hPa
Clouds: Clear
Visibility: 10 miles , 16 km
2021/01/15 12:53 KTCL 151253Z 00000KT 10SM CLR 03/02 A2983 RMK AO2 SLP100 T00280017
KECP - Panama City, Florida, USA
Distance from station: SSE 122mi, 196km
Updated: Fri, 15-Jan-2021 7:00am CST
Light rain, Overcast
Light rain, Overcast
 Wind from WNW
Wind: WNW 12 mph , 19 km/h
Temperature: 55°F , 13°C
Dew Point: 52°F , 11°C
Humidity: 88%
Barometer: 29.82 inHg , 1009.8 hPa
Summary: Light rain
Clouds: Overcast
Visibility: 10 miles , 16 km
Cloud details: Partly cloudy 2100 ft
Mostly cloudy 3300 ft
Overcast 10000 ft
2021/01/15 13:00 KECP 151300Z 30010KT 10SM -RA SCT021 BKN033 OVC100 13/11 A2982 RMK AO2 P0000 T01280106
KCBM - Columbus Afb, Mississippi, USA
Distance from station: NW 175mi, 282km
Updated: Fri, 15-Jan-2021 6:56am CST
Clear
Clear
 Wind from SSW
Wind: SSW 8 mph , 13 km/h
Temperature: 30°F , -1°C
Wind Chill: 22°F , -6°C
Dew Point: 28°F , -2°C
Humidity: 93%
Barometer: 29.80 inHg , 1009.1 hPa
Clouds: Clear
Visibility: 10 miles , 16 km
2021/01/15 12:56 KCBM 151256Z 21007KT 10SM CLR M01/M02 A2980 RMK AO2A SLP095 T10091022 $
 
KBHM - Birmingham, Alabama, USA
Distance from station: N 132mi, 212km
Updated: Fri, 15-Jan-2021 6:53am CST
Partly cloudy
Partly cloudy
 Wind from calm
Wind: Calm
Temperature: 39°F , 4°C
Dew Point: 30°F , -1°C
Humidity: 70%
Barometer: 29.81 inHg , 1009.5 hPa
Clouds: Partly cloudy
Visibility: 10 miles , 16 km
Cloud details: Partly cloudy 25000 ft
2021/01/15 12:53 KBHM 151253Z 00000KT 10SM SCT250 04/M01 A2981 RMK AO2 SLP094 T00441006
KAAF - Apalachicola, Florida, USA
Distance from station: SSE 156mi, 250km
Updated: Fri, 15-Jan-2021 7:37am CST
Overcast
Overcast
 Wind from W
Wind: W 10 mph , 17 km/h
Temperature: 61°F , 16°C
Dew Point: 61°F , 16°C
Humidity: 100%
Barometer: 29.83 inHg , 1010.2 hPa
Clouds: Overcast
Visibility: 9 miles , 14 km
Cloud details: Partly cloudy 1000 ft
Mostly cloudy 2100 ft
Overcast 3200 ft
2021/01/15 13:37 KAAF 151337Z AUTO 28009KT 9SM SCT010 BKN021 OVC032 16/16 A2983 RMK AO2 RAB20E37 P0001 T01560156 $
KATL - Atlanta, Georgia, USA
Distance from station: NE 177mi, 287km
Updated: Fri, 15-Jan-2021 7:39am CST
Mostly cloudy
Mostly cloudy
 Wind from WNW
Wind: WNW 15 mph , 24 km/h
Temperature: 46°F , 8°C
Wind Chill: 40°F , 4°C
Dew Point: 36°F , 2°C
Humidity: 66%
Barometer: 29.76 inHg , 1007.8 hPa
Clouds: Mostly cloudy
Visibility: 10 miles , 16 km
Cloud details: Few Clouds 1900 ft
Partly cloudy 2500 ft
Mostly cloudy 3000 ft
2021/01/15 13:39 KATL 151339Z 30013KT 10SM FEW019 SCT025 BKN030 08/02 A2976 RMK AO2 T00780022
 
KGPT - Gulfport, Mississippi, USA
Distance from station: SW 192mi, 309km
Updated: Fri, 15-Jan-2021 6:53am CST
Clear
Clear
 Wind from W
Wind: W 3 mph , 6 km/h
Temperature: 39°F , 4°C
Dew Point: 36°F , 2°C
Humidity: 87%
Barometer: 29.91 inHg , 1012.9 hPa
Clouds: Clear
Visibility: 10 miles , 16 km
2021/01/15 12:53 KGPT 151253Z 27003KT 10SM CLR 04/02 A2991 RMK AO2 SLP128 T00390017
KNEW - New Orleans/Lake, Louisiana, USA
Distance from station: SW 255mi, 410km
Updated: Fri, 15-Jan-2021 6:53am CST
Clear
Clear
 Wind from WNW
Wind: WNW 12 mph , 19 km/h
Temperature: 50°F , 10°C
Wind Chill: 45°F , 7°C
Dew Point: 41°F , 5°C
Humidity: 71%
Barometer: 29.96 inHg , 1014.6 hPa
Clouds: Clear
Visibility: 10 miles , 16 km
2021/01/15 12:53 KNEW 151253Z 30010KT 10SM CLR 10/05 A2996 RMK AO2 SLP137 T01000050
KP92 - Salt Point, Louisiana, USA
Distance from station: SW 347mi, 559km
Updated: Fri, 15-Jan-2021 6:59am CST

 Wind from varies
Wind: varies 5 mph , 7 km/h
Temperature: 46°F , 8°C
Wind Chill: 44°F , 7°C
Dew Point: 36°F , 2°C
Humidity: 66%
Barometer: 29.99 inHg , 1015.6 hPa
2021/01/15 12:59 KP92 151259Z AUTO VRB04KT 08/02 A2999 RMK AO1 SLP155 T00780022